»·PEaware :: SWA1153 KRNO-KLAS

SWA1153 :: KRNO-KLAS

FLIGHT INFORMATION

Flight Status: Arrived
Operator:
Southwest Airlines
More flights by this operator :: More flights under this callsign
Pilot: Dave P. (45)
Aircraft: BOEING 737-700
(B737)
More flights by this aircraft type
Origin: KRNO Reno/Tahoe Intl
United States
Destination: KLAS McCarran Intl
United States
More flights between these airports :: More routes between these airports
Route: ZEFFR6 PESKE LIDAT J92 BTY SUNST4
File this flight plan on PilotEdge
Remarks: RMK / SIMBRIEF
Altitude:
(Current/Filed)
33,000ft
Speed:
(Current/Filed)
445kts
Departed: 21-May-20 09:02 AM
Arrived: 21-May-20 09:58 AM
Distance/Time
Traveled:
300nm/0:56
Distance/Time
To Go:
Arrived

Flight Plot

Page will automatically refresh every two minutes.


Map Options




Map Legend


Flown Route
Filed Route
Departure Airport
Arrival Airport
Navaid (VOR, NDB)
Fix

Horizontal Profiles

Position Reports

Time Latitude Longitude Heading Altitude Ground
Speed
21-May-20 08:39 39.505197 -119.772237 245 4423ft 0kts
21-May-20 08:40 39.505197 -119.772237 245 4423ft 0kts
21-May-20 08:41 39.505197 -119.772237 245 4423ft 0kts
21-May-20 08:42 39.505197 -119.772237 245 4423ft 0kts
21-May-20 08:43 39.505197 -119.772237 245 4423ft 0kts
21-May-20 08:44 39.505197 -119.772237 245 4423ft 0kts
21-May-20 08:45 39.505197 -119.772237 245 4423ft 0kts
21-May-20 08:46 39.505197 -119.772237 245 4423ft 0kts
21-May-20 08:47 39.505197 -119.772237 245 4423ft 0kts
21-May-20 08:48 39.505197 -119.772237 245 4423ft 0kts
21-May-20 08:49 39.505197 -119.772237 245 4423ft 0kts
21-May-20 08:50 39.505197 -119.772237 245 4423ft 0kts
21-May-20 08:51 39.505197 -119.772237 245 4423ft 0kts
21-May-20 08:52 39.505197 -119.772237 245 4423ft 0kts
21-May-20 08:53 39.505197 -119.772237 245 4423ft 0kts
21-May-20 08:54 39.505308 -119.771907 253 4423ft 2kts
21-May-20 08:55 39.505041 -119.771444 14 4423ft 0kts
21-May-20 08:56 39.505041 -119.771444 14 4423ft 0kts
21-May-20 08:57 39.505119 -119.771439 358 4423ft 4kts
21-May-20 08:58 39.509900 -119.771477 0 4423ft 19kts
21-May-20 08:59 39.513805 -119.770575 94 4423ft 12kts
21-May-20 09:00 39.513782 -119.770195 94 4423ft 7kts
21-May-20 09:01 39.506944 -119.769242 180 4423ft 104kts
21-May-20 09:02 39.463328 -119.768805 180 6127ft 185kts
21-May-20 09:03 39.399854 -119.769467 180 7531ft 271kts
21-May-20 09:04 39.321536 -119.763219 156 11017ft 299kts
21-May-20 09:05 39.255090 -119.676466 131 13277ft 364kts
21-May-20 09:06 39.185354 -119.575702 133 16747ft 386kts
21-May-20 09:07 39.108683 -119.473594 139 19158ft 404kts
21-May-20 09:08 39.027220 -119.373601 138 19439ft 410kts
21-May-20 09:09 38.943932 -119.269890 138 22475ft 425kts
21-May-20 09:10 38.856797 -119.162667 138 24930ft 444kts
21-May-20 09:11 38.765661 -119.050750 138 27064ft 461kts
21-May-20 09:12 38.675878 -118.928484 135 28894ft 478kts
21-May-20 09:13 38.583588 -118.803254 136 30486ft 491kts
21-May-20 09:14 38.489836 -118.676092 136 32408ft 489kts
21-May-20 09:15 38.396393 -118.549982 136 33194ft 492kts
21-May-20 09:16 38.302586 -118.424195 136 33204ft 487kts
21-May-20 09:17 38.209173 -118.299466 136 33215ft 486kts
21-May-20 09:18 38.115766 -118.175252 136 33207ft 485kts
21-May-20 09:19 38.022463 -118.051656 136 33193ft 485kts
21-May-20 09:20 37.929083 -117.928441 136 33192ft 485kts
21-May-20 09:21 37.835382 -117.805283 136 33193ft 485kts
21-May-20 09:22 37.741325 -117.682130 136 33195ft 486kts
21-May-20 09:23 37.646883 -117.558815 136 33195ft 488kts
21-May-20 09:24 37.552237 -117.435614 136 33206ft 490kts
21-May-20 09:25 37.457102 -117.312795 136 33203ft 491kts
21-May-20 09:26 37.349684 -117.209076 150 33196ft 487kts
21-May-20 09:27 37.236690 -117.114236 149 33176ft 489kts
21-May-20 09:28 37.123975 -117.019091 149 33168ft 490kts
21-May-20 09:29 37.010549 -116.923102 149 33158ft 491kts
21-May-20 09:30 36.896903 -116.828001 150 33150ft 492kts
21-May-20 09:31 36.786245 -116.726833 139 33010ft 499kts
21-May-20 09:32 36.694118 -116.596462 132 29828ft 501kts
21-May-20 09:33 36.604404 -116.467860 132 27146ft 480kts
21-May-20 09:34 36.518190 -116.346056 132 24558ft 459kts
21-May-20 09:35 36.435385 -116.229398 131 22039ft 439kts
21-May-20 09:36 36.356537 -116.118087 131 19590ft 420kts
21-May-20 09:37 36.280528 -116.011803 130 17110ft 405kts
21-May-20 09:38 36.210063 -115.911838 124 16082ft 356kts
21-May-20 09:39 36.170395 -115.806489 109 15106ft 327kts
21-May-20 09:40 36.137426 -115.703572 110 14124ft 321kts
21-May-20 09:41 36.104635 -115.601691 110 13138ft 314kts
21-May-20 09:42 36.072682 -115.503082 110 12191ft 306kts
21-May-20 09:43 36.042722 -115.410928 109 11114ft 274kts
21-May-20 09:44 36.024113 -115.323870 102 10451ft 252kts
21-May-20 09:45 36.007509 -115.240928 102 9411ft 247kts
21-May-20 09:46 35.990919 -115.158718 102 8628ft 246kts
21-May-20 09:47 35.949832 -115.106936 190 8291ft 229kts
21-May-20 09:48 35.891441 -115.134732 202 7958ft 220kts
21-May-20 09:49 35.834596 -115.163047 202 7273ft 217kts
21-May-20 09:50 35.811843 -115.219260 290 7006ft 212kts
21-May-20 09:51 35.851774 -115.261555 351 6368ft 204kts
21-May-20 09:52 35.908000 -115.266934 18 5587ft 202kts
21-May-20 09:53 35.958792 -115.237007 24 4970ft 201kts
21-May-20 09:54 36.008243 -115.208729 24 3879ft 179kts
21-May-20 09:55 36.047618 -115.186230 24 2932ft 137kts
21-May-20 09:56 36.081354 -115.166961 24 2210ft 131kts
21-May-20 09:57 36.093419 -115.158860 116 2189ft 6kts
21-May-20 09:58 36.092272 -115.155792 115 2189ft 11kts
21-May-20 09:59 36.089067 -115.156789 204 2189ft 15kts
21-May-20 10:00 36.085767 -115.157389 154 2189ft 16kts
21-May-20 10:01 36.080649 -115.154429 154 2189ft 17kts
21-May-20 10:02 36.078771 -115.150920 92 2189ft 17kts
21-May-20 10:03 36.079258 -115.146898 27 2189ft 7kts
21-May-20 10:04 36.079554 -115.146708 27 2189ft 0kts
21-May-20 10:05 36.079554 -115.146708 27 2189ft 0kts
21-May-20 10:06 36.079554 -115.146708 27 2189ft 0kts
21-May-20 10:07 36.079554 -115.146708 27 2189ft 0kts
21-May-20 10:08 36.079554 -115.146708 27 2189ft 0kts
21-May-20 10:10 36.079554 -115.146708 27 2189ft 0kts
21-May-20 10:11 36.079554 -115.146708 27 2189ft 0kts
21-May-20 10:12 36.079554 -115.146708 27 2189ft 0kts

Navigation Log

Ident Type
Flight plan parsing failed, navigation log unavailable